createdAt,value
2023-01-19T00:00:30.242Z,97148.00
2023-01-19T00:02:56.917Z,97140.69
2023-01-19T00:47:26.697Z,97105.81
2023-01-19T00:49:53.287Z,97100.84
2023-01-19T00:52:19.910Z,97117.03
2023-01-19T00:54:46.371Z,97038.59
2023-01-19T00:57:12.938Z,97118.22
2023-01-19T00:59:39.469Z,97100.22
2023-01-19T01:02:06.215Z,97113.56
2023-01-19T01:04:33.083Z,97110.78
2023-01-19T01:06:59.728Z,97112.09
2023-01-19T01:09:26.539Z,97092.91
2023-01-19T01:11:53.183Z,97112.41
2023-01-19T01:14:19.691Z,97118.84
2023-01-19T01:16:46.385Z,97106.28
2023-01-19T01:19:12.914Z,97122.97
2023-01-19T01:21:39.623Z,97098.19
2023-01-19T01:24:06.764Z,97109.22
2023-01-19T01:26:33.433Z,97113.84
2023-01-19T01:29:00.069Z,97115.97
2023-01-19T01:31:27.143Z,97114.97
2023-01-19T01:33:53.744Z,97103.19
2023-01-19T01:36:20.816Z,97104.34
2023-01-19T01:38:47.468Z,97096.94
2023-01-19T01:41:14.280Z,97110.66
2023-01-19T01:43:45.111Z,97118.94
2023-01-19T01:46:14.799Z,97100.09
2023-01-19T01:48:46.062Z,97107.66
2023-01-19T01:51:26.903Z,97117.91
2023-01-19T01:54:17.394Z,97103.34
2023-01-19T01:56:47.538Z,97110.28
2023-01-19T01:59:26.667Z,97102.88
2023-01-19T02:02:15.706Z,97116.38
2023-01-19T02:04:59.101Z,97106.94
2023-01-19T02:07:53.620Z,97118.03
2023-01-19T02:10:38.964Z,97105.63
2023-01-19T02:13:21.101Z,97127.06
2023-01-19T02:15:50.053Z,97119.56
2023-01-19T02:18:17.235Z,97132.59
2023-01-19T02:20:53.566Z,97096.41
2023-01-19T02:23:33.893Z,97121.00
2023-01-19T02:26:01.576Z,97115.72
2023-01-19T02:28:28.776Z,97113.59
2023-01-19T02:30:56.026Z,97111.72
2023-01-19T02:33:22.720Z,97099.97
2023-01-19T02:35:51.966Z,97087.41
2023-01-19T02:38:21.194Z,97081.63
2023-01-19T02:40:49.052Z,97089.22
2023-01-19T02:43:17.803Z,97098.00
2023-01-19T02:45:44.570Z,97096.84
2023-01-19T02:48:11.297Z,97095.34
2023-01-19T02:50:43.539Z,97101.41
2023-01-19T02:53:31.127Z,97096.47
2023-01-19T02:56:27.370Z,97094.59
2023-01-19T02:58:58.555Z,97087.31
2023-01-19T03:01:31.998Z,97095.75
2023-01-19T03:04:11.321Z,97068.84
2023-01-19T03:07:06.419Z,97094.78
2023-01-19T03:09:43.879Z,97092.28
2023-01-19T03:12:47.919Z,97093.72
2023-01-19T03:15:29.482Z,97078.19
2023-01-19T03:17:59.499Z,97095.44
2023-01-19T03:20:28.820Z,97075.31
2023-01-19T03:23:01.545Z,97085.88
2023-01-19T03:25:31.624Z,97083.56
2023-01-19T03:27:58.275Z,97077.63
2023-01-19T03:30:29.380Z,97091.53
2023-01-19T03:33:12.932Z,97087.91
2023-01-19T03:35:44.896Z,97075.22
2023-01-19T03:38:16.047Z,97072.81
2023-01-19T03:40:43.701Z,97094.31
2023-01-19T03:43:11.360Z,97072.53
2023-01-19T03:45:39.062Z,97077.13
2023-01-19T03:48:06.660Z,97075.97
2023-01-19T03:50:33.368Z,97073.53
2023-01-19T03:53:11.861Z,97076.75
2023-01-19T03:55:41.327Z,97080.97
2023-01-19T03:58:08.217Z,97089.09
2023-01-19T04:00:36.534Z,97086.91
2023-01-19T04:03:04.845Z,97070.38
2023-01-19T04:05:31.971Z,97095.34
2023-01-19T04:07:58.634Z,97091.66
2023-01-19T04:10:25.436Z,97090.28
2023-01-19T04:12:58.337Z,97106.47
2023-01-19T04:15:25.876Z,97100.66
2023-01-19T04:17:52.590Z,97082.63
2023-01-19T04:20:19.219Z,97106.56
2023-01-19T04:22:45.795Z,97078.50
2023-01-19T04:25:12.393Z,97082.91
2023-01-19T04:27:38.969Z,97076.13
2023-01-19T04:30:06.207Z,97085.69
2023-01-19T04:32:32.971Z,97093.16
2023-01-19T04:34:59.628Z,97082.03
2023-01-19T04:37:26.216Z,97109.13
2023-01-19T04:39:52.828Z,97096.09
2023-01-19T04:42:19.672Z,97103.41
2023-01-19T04:44:46.276Z,97088.88
2023-01-19T04:47:12.914Z,97105.66
2023-01-19T04:49:39.496Z,97080.91
2023-01-19T04:52:06.301Z,97112.03
2023-01-19T04:54:33.381Z,97098.66
2023-01-19T04:56:59.970Z,97134.81
2023-01-19T04:59:26.606Z,97133.03
2023-01-19T05:01:53.369Z,97135.91
2023-01-19T05:04:19.982Z,97136.56
2023-01-19T05:06:46.543Z,97142.13
2023-01-19T05:09:15.204Z,97141.66
2023-01-19T05:11:41.710Z,97129.69
2023-01-19T05:14:08.257Z,97116.84
2023-01-19T05:16:34.743Z,97139.31
2023-01-19T05:19:01.391Z,97132.88
2023-01-19T05:21:28.475Z,97139.72
2023-01-19T05:23:55.289Z,97145.75
2023-01-19T05:26:21.920Z,97128.22
2023-01-19T05:28:48.615Z,97148.44
2023-01-19T05:31:15.327Z,97142.97
2023-01-19T05:33:42.509Z,97158.69
2023-01-19T05:36:09.305Z,97154.25
2023-01-19T05:38:36.210Z,97164.63
2023-01-19T05:41:03.338Z,97167.94
2023-01-19T05:43:29.838Z,97170.31
2023-01-19T05:45:56.535Z,97164.09
2023-01-19T05:48:23.247Z,97176.66
2023-01-19T05:50:49.909Z,97171.53
2023-01-19T05:53:17.117Z,97172.22
2023-01-19T05:55:43.691Z,97183.41
2023-01-19T05:58:10.297Z,97166.88
2023-01-19T06:00:36.882Z,97187.44
2023-01-19T06:03:04.193Z,97180.41
2023-01-19T06:05:30.933Z,97194.94
2023-01-19T06:07:57.666Z,97194.25
2023-01-19T06:10:24.270Z,97183.56
2023-01-19T06:12:52.399Z,97187.75
2023-01-19T06:15:19.508Z,97201.50
2023-01-19T06:17:46.181Z,97206.59
2023-01-19T06:20:14.234Z,97215.28
2023-01-19T06:22:40.913Z,97213.66
2023-01-19T06:25:07.905Z,97213.13
2023-01-19T06:27:34.565Z,97224.75
2023-01-19T06:30:01.135Z,97207.34
2023-01-19T06:32:27.935Z,97214.94
2023-01-19T06:34:54.491Z,97211.53
2023-01-19T06:37:21.057Z,97233.06
2023-01-19T06:39:47.648Z,97215.22
2023-01-19T06:42:14.336Z,97216.22
2023-01-19T06:44:47.298Z,97233.63
2023-01-19T06:47:16.346Z,97241.91
2023-01-19T06:49:43.525Z,97243.28
2023-01-19T06:52:11.482Z,97232.50
2023-01-19T06:54:38.143Z,97266.47
2023-01-19T06:57:04.875Z,97250.88
2023-01-19T06:59:31.952Z,97267.31
2023-01-19T07:01:59.071Z,97256.63
2023-01-19T07:04:26.996Z,97255.16
2023-01-19T07:06:53.766Z,97251.41
2023-01-19T07:09:20.456Z,97286.97
2023-01-19T07:11:48.158Z,97293.47
2023-01-19T07:14:15.501Z,97282.94
2023-01-19T07:16:42.395Z,97265.53
2023-01-19T07:19:10.662Z,97276.31
2023-01-19T07:21:37.609Z,97302.03
2023-01-19T07:24:04.443Z,97301.44
2023-01-19T07:26:31.112Z,97271.75
2023-01-19T07:28:57.742Z,97296.31
2023-01-19T07:31:24.577Z,97297.84
2023-01-19T07:33:51.296Z,97280.16
2023-01-19T07:36:17.993Z,97291.06
2023-01-19T07:38:44.513Z,97315.94
2023-01-19T07:41:11.449Z,97326.97
2023-01-19T07:43:38.255Z,97330.41
2023-01-19T07:46:07.146Z,97332.41
2023-01-19T07:48:34.355Z,97332.91
2023-01-19T07:51:05.405Z,97331.56
2023-01-19T07:53:32.865Z,97316.38
2023-01-19T07:55:59.500Z,97335.13
2023-01-19T07:58:26.515Z,97332.16
2023-01-19T08:00:55.289Z,97291.84
2023-01-19T08:03:24.334Z,97336.31
2023-01-19T08:05:52.987Z,97344.34
2023-01-19T08:08:20.260Z,97341.41
2023-01-19T08:10:49.878Z,97351.03
2023-01-19T08:13:16.448Z,97344.38
2023-01-19T08:15:43.112Z,97353.31
2023-01-19T08:18:11.570Z,97356.22
2023-01-19T08:20:38.167Z,97330.59
2023-01-19T08:23:05.490Z,97355.44
2023-01-19T08:25:34.338Z,97347.81
2023-01-19T08:28:01.709Z,97347.91
2023-01-19T08:30:28.374Z,97363.00
2023-01-19T08:32:58.078Z,97354.56
2023-01-19T08:35:24.934Z,97366.50
2023-01-19T08:37:51.601Z,97369.09
2023-01-19T08:40:18.424Z,97374.22
2023-01-19T08:42:45.392Z,97368.78
2023-01-19T08:45:11.988Z,97367.44
2023-01-19T08:47:38.608Z,97382.28
2023-01-19T08:50:05.557Z,97369.34
2023-01-19T08:52:32.322Z,97381.53
2023-01-19T08:54:58.802Z,97387.03
2023-01-19T08:57:27.363Z,97373.03
2023-01-19T08:59:54.054Z,97380.31
2023-01-19T09:02:20.837Z,97392.97
2023-01-19T09:04:47.393Z,97407.31
2023-01-19T09:07:14.091Z,97407.34
2023-01-19T09:09:43.327Z,97403.53
2023-01-19T09:12:10.021Z,97401.41
2023-01-19T09:14:36.587Z,97397.03
2023-01-19T09:17:03.123Z,97391.16
2023-01-19T09:19:29.722Z,97421.50
2023-01-19T09:21:56.393Z,97432.59
2023-01-19T09:24:22.895Z,97428.06
2023-01-19T09:26:49.494Z,97401.31
2023-01-19T09:29:16.151Z,97431.97
2023-01-19T09:31:44.120Z,97439.56
2023-01-19T09:34:10.966Z,97442.44
2023-01-19T09:36:39.528Z,97416.44
2023-01-19T09:39:06.124Z,97391.75
2023-01-19T09:41:36.687Z,97458.50
2023-01-19T09:44:04.530Z,97449.22
2023-01-19T09:46:38.643Z,97448.00
2023-01-19T09:49:13.710Z,97450.72
2023-01-19T09:51:45.012Z,97449.91
2023-01-19T09:54:35.921Z,97446.34
2023-01-19T09:57:02.692Z,97438.38
2023-01-19T09:59:30.801Z,97463.69
2023-01-19T10:02:06.247Z,97457.63
2023-01-19T10:04:42.941Z,97467.72
2023-01-19T10:07:12.705Z,97469.84
2023-01-19T10:10:03.591Z,97478.81
2023-01-19T10:12:52.040Z,97472.81
2023-01-19T10:15:23.087Z,97471.69
2023-01-19T10:18:00.457Z,97459.00
2023-01-19T10:20:33.450Z,97479.28
2023-01-19T10:23:01.936Z,97448.06
2023-01-19T10:25:28.687Z,97451.16
2023-01-19T10:27:55.693Z,97476.00
2023-01-19T10:30:26.146Z,97467.50
2023-01-19T10:32:53.265Z,97484.56
2023-01-19T10:35:24.168Z,97473.06
2023-01-19T10:37:53.658Z,97470.59
2023-01-19T10:40:36.508Z,97482.84
2023-01-19T10:43:35.532Z,97485.81
2023-01-19T10:46:05.881Z,97486.16
2023-01-19T10:48:53.209Z,97476.69
2023-01-19T10:51:20.638Z,97476.53
2023-01-19T10:54:02.496Z,97434.53
2023-01-19T10:56:37.291Z,97458.09
2023-01-19T10:59:06.618Z,97477.13
2023-01-19T11:01:37.116Z,97446.13
2023-01-19T11:04:26.630Z,97476.41
2023-01-19T11:07:13.667Z,97443.66
2023-01-19T11:09:40.258Z,97463.28
2023-01-19T11:12:16.854Z,97463.69
2023-01-19T11:14:43.679Z,97459.19
2023-01-19T11:17:19.592Z,97456.44
2023-01-19T11:20:00.578Z,97435.44
2023-01-19T11:22:32.990Z,97449.22
2023-01-19T11:25:05.269Z,97452.00
2023-01-19T11:27:36.295Z,97450.91
2023-01-19T11:30:10.433Z,97452.72
2023-01-19T11:32:37.230Z,97444.41
2023-01-19T11:35:41.546Z,97455.69
2023-01-19T11:38:20.006Z,97448.00
2023-01-19T11:40:53.120Z,97439.03
2023-01-19T11:43:22.176Z,97408.41
2023-01-19T11:45:48.871Z,97430.84
2023-01-19T11:48:27.045Z,97410.16
2023-01-19T11:50:54.449Z,97440.19
2023-01-19T11:53:29.106Z,97415.31
2023-01-19T11:55:59.622Z,97447.31
2023-01-19T11:58:27.169Z,97444.69
2023-01-19T12:01:02.667Z,97438.53
2023-01-19T12:03:53.855Z,97443.53
2023-01-19T12:06:44.766Z,97429.56
2023-01-19T12:09:29.728Z,97430.53
2023-01-19T12:12:09.573Z,97435.00
2023-01-19T12:14:57.518Z,97445.06
2023-01-19T12:17:43.715Z,97422.69
2023-01-19T12:20:14.984Z,97438.50
2023-01-19T12:22:50.720Z,97446.56
2023-01-19T12:25:31.600Z,97440.28
2023-01-19T12:27:59.229Z,97422.41
2023-01-19T12:30:29.073Z,97442.50
2023-01-19T12:33:26.570Z,97447.53
2023-01-19T12:35:54.747Z,97426.13
2023-01-19T12:38:33.269Z,97438.16
2023-01-19T12:41:28.645Z,97434.91
2023-01-19T12:44:10.821Z,97426.84
2023-01-19T12:46:46.065Z,97430.47
2023-01-19T12:49:38.343Z,97429.72
2023-01-19T12:52:23.693Z,97421.91
2023-01-19T12:55:04.190Z,97413.13
2023-01-19T12:57:38.077Z,97402.47
2023-01-19T13:00:24.909Z,97416.09
2023-01-19T13:02:56.545Z,97404.66
2023-01-19T13:05:26.010Z,97424.34
2023-01-19T13:08:01.832Z,97422.13
2023-01-19T13:10:59.414Z,97433.34
2023-01-19T13:13:47.887Z,97433.03
2023-01-19T13:16:25.137Z,97438.97
2023-01-19T13:18:55.951Z,97432.50
2023-01-19T13:21:42.418Z,97431.75
2023-01-19T13:24:24.969Z,97438.78
2023-01-19T13:26:51.549Z,97434.69
2023-01-19T13:29:26.991Z,97448.78
2023-01-19T13:32:02.217Z,97436.75
2023-01-19T13:34:36.979Z,97439.50
2023-01-19T13:37:06.060Z,97442.31
2023-01-19T13:39:37.014Z,97433.00
2023-01-19T13:42:15.511Z,97444.47
2023-01-19T13:44:47.193Z,97441.38
2023-01-19T13:47:20.937Z,97458.41
2023-01-19T13:49:51.505Z,97443.34
2023-01-19T13:52:26.502Z,97456.63
2023-01-19T13:54:59.805Z,97454.03
2023-01-19T13:57:41.885Z,97464.59
2023-01-19T14:00:17.088Z,97463.75
2023-01-19T14:03:01.998Z,97471.56
2023-01-19T14:05:37.591Z,97475.50
2023-01-19T14:08:06.490Z,97471.97
2023-01-19T14:10:35.511Z,97485.00
2023-01-19T14:13:12.775Z,97463.34
2023-01-19T14:15:40.709Z,97480.41
2023-01-19T14:18:30.907Z,97490.59
2023-01-19T14:21:18.586Z,97469.75
2023-01-19T14:23:55.037Z,97464.91
2023-01-19T14:26:43.043Z,97503.25
2023-01-19T14:29:26.591Z,97475.75
2023-01-19T14:32:16.277Z,97496.38
2023-01-19T14:34:47.687Z,97500.38
2023-01-19T14:37:25.284Z,97503.69
2023-01-19T14:40:05.915Z,97512.91
2023-01-19T14:42:37.543Z,97513.03
2023-01-19T14:45:17.612Z,97505.75
2023-01-19T14:47:46.351Z,97493.19
2023-01-19T14:50:24.535Z,97501.94
2023-01-19T14:52:59.294Z,97502.69
2023-01-19T14:55:39.185Z,97523.84
2023-01-19T14:58:17.707Z,97524.09
2023-01-19T15:00:45.778Z,97512.25
2023-01-19T15:03:12.598Z,97518.84
2023-01-19T15:05:41.868Z,97520.00
2023-01-19T15:08:14.988Z,97495.91
2023-01-19T15:10:41.764Z,97528.94
2023-01-19T15:13:17.483Z,97527.28
2023-01-19T15:15:44.193Z,97510.53
2023-01-19T15:18:16.070Z,97539.53
2023-01-19T15:20:42.701Z,97527.69
2023-01-19T15:23:11.166Z,97549.72
2023-01-19T15:25:40.925Z,97551.44
2023-01-19T15:28:12.924Z,97551.19
2023-01-19T15:30:39.810Z,97557.78
2023-01-19T15:33:06.484Z,97527.69
2023-01-19T15:35:33.102Z,97565.19
2023-01-19T15:37:59.665Z,97539.72
2023-01-19T15:40:26.323Z,97541.81
2023-01-19T15:42:52.913Z,97562.16
2023-01-19T15:45:28.543Z,97574.50
2023-01-19T15:47:55.121Z,97573.22
2023-01-19T15:50:21.886Z,97575.56
2023-01-19T15:52:48.577Z,97536.06
2023-01-19T15:55:15.906Z,97545.50
2023-01-19T15:57:42.571Z,97567.56
2023-01-19T16:00:10.409Z,97570.38
2023-01-19T16:02:37.749Z,97582.31
2023-01-19T16:05:05.089Z,97584.63
2023-01-19T16:07:33.667Z,97595.47
2023-01-19T16:10:00.770Z,97597.47
2023-01-19T16:12:29.044Z,97601.03
2023-01-19T16:14:55.906Z,97601.66
2023-01-19T16:17:22.811Z,97607.75
2023-01-19T16:19:49.342Z,97586.00
2023-01-19T16:22:15.896Z,97577.09
2023-01-19T16:24:42.475Z,97586.41
2023-01-19T16:27:09.021Z,97595.66
2023-01-19T16:29:35.607Z,97619.44
2023-01-19T16:32:02.268Z,97628.22
2023-01-19T16:34:29.039Z,97620.88
2023-01-19T16:36:55.636Z,97645.31
2023-01-19T16:39:22.248Z,97648.28
2023-01-19T16:41:48.767Z,97644.16
2023-01-19T16:44:16.325Z,97649.75
2023-01-19T16:46:45.737Z,97654.56
2023-01-19T16:49:16.619Z,97618.16
2023-01-19T16:51:43.550Z,97636.44
2023-01-19T16:54:19.621Z,97652.38
2023-01-19T16:56:46.618Z,97644.94
2023-01-19T16:59:14.811Z,97612.47
2023-01-19T17:01:43.684Z,97632.34
2023-01-19T17:04:11.839Z,97640.16
2023-01-19T17:06:38.831Z,97647.97
2023-01-19T17:09:06.346Z,97636.88
2023-01-19T17:11:35.006Z,97651.81
2023-01-19T17:14:07.745Z,97646.31
2023-01-19T17:16:35.716Z,97650.25
2023-01-19T17:19:04.821Z,97648.13
2023-01-19T17:21:31.631Z,97638.72
2023-01-19T17:23:58.899Z,97658.28
2023-01-19T17:26:31.228Z,97645.91
2023-01-19T17:29:02.880Z,97646.72
2023-01-19T17:31:30.586Z,97663.47
2023-01-19T17:33:58.277Z,97670.94
2023-01-19T17:36:27.524Z,97662.81
2023-01-19T17:38:56.416Z,97667.63
2023-01-19T17:41:29.423Z,97670.13
2023-01-19T17:43:56.861Z,97589.25
2023-01-19T17:46:25.572Z,97685.84
2023-01-19T17:49:10.977Z,97643.59
2023-01-19T17:51:37.626Z,97672.44
2023-01-19T17:54:04.719Z,97678.56
2023-01-19T17:56:36.611Z,97682.34
2023-01-19T17:59:06.388Z,97702.69
2023-01-19T18:01:33.837Z,97645.91
2023-01-19T18:04:02.492Z,97703.09
2023-01-19T18:06:29.090Z,97678.72
2023-01-19T18:08:57.196Z,97703.72
2023-01-19T18:11:23.700Z,97717.31
2023-01-19T18:13:51.339Z,97702.13
2023-01-19T18:16:23.898Z,97733.13
2023-01-19T18:18:52.186Z,97690.28
2023-01-19T18:21:20.149Z,97739.88
2023-01-19T18:23:46.691Z,97742.78
2023-01-19T18:26:16.835Z,97751.06
2023-01-19T18:28:43.527Z,97740.94
2023-01-19T18:31:13.334Z,97738.91
2023-01-19T18:33:40.726Z,97745.06
2023-01-19T18:36:08.439Z,97732.31
2023-01-19T18:38:35.631Z,97724.19
2023-01-19T18:41:04.931Z,97748.75
2023-01-19T18:43:31.742Z,97744.91
2023-01-19T18:45:58.452Z,97730.50
2023-01-19T18:48:25.180Z,97736.88
2023-01-19T18:50:51.818Z,97718.47
2023-01-19T18:53:18.698Z,97727.22
2023-01-19T18:55:56.944Z,97728.53
2023-01-19T18:58:23.793Z,97727.69
2023-01-19T19:00:50.974Z,97727.84
2023-01-19T19:03:17.837Z,97697.03
2023-01-19T19:05:44.518Z,97660.84
2023-01-19T19:08:11.508Z,97706.69
2023-01-19T19:10:40.855Z,97722.09
2023-01-19T19:13:08.107Z,97725.94
2023-01-19T19:15:34.763Z,97727.31
2023-01-19T19:18:01.428Z,97736.00
2023-01-19T19:20:28.109Z,97729.25
2023-01-19T19:22:55.704Z,97723.16
2023-01-19T19:25:22.744Z,97755.53
2023-01-19T19:27:53.004Z,97757.56
2023-01-19T19:30:20.685Z,97760.22
2023-01-19T19:32:56.037Z,97708.78
2023-01-19T19:35:23.624Z,97756.78
2023-01-19T19:37:51.378Z,97756.63
2023-01-19T19:40:18.114Z,97757.06
2023-01-19T19:42:44.697Z,97749.91
2023-01-19T19:45:11.952Z,97750.66
2023-01-19T19:47:38.498Z,97749.53
2023-01-19T19:50:05.306Z,97737.06
2023-01-19T19:52:32.062Z,97748.03
2023-01-19T19:54:58.768Z,97710.38
2023-01-19T19:57:25.444Z,97750.06
2023-01-19T19:59:51.982Z,97751.47
2023-01-19T20:02:18.450Z,97746.84
2023-01-19T20:04:45.122Z,97729.34
2023-01-19T20:07:11.669Z,97741.31
2023-01-19T20:09:38.695Z,97741.19
2023-01-19T20:12:05.618Z,97740.63
2023-01-19T20:14:32.258Z,97735.25
2023-01-19T20:16:58.950Z,97746.66
2023-01-19T20:19:25.499Z,97741.38
2023-01-19T20:21:52.172Z,97747.78
2023-01-19T20:24:20.425Z,97751.78
2023-01-19T20:26:52.487Z,97739.88
2023-01-19T20:29:20.073Z,97749.13
2023-01-19T20:31:53.267Z,97748.44
2023-01-19T20:34:22.895Z,97713.13
2023-01-19T20:36:51.530Z,97755.56
2023-01-19T20:39:18.627Z,97759.88
2023-01-19T20:41:45.742Z,97707.03
2023-01-19T20:44:19.910Z,97755.97
2023-01-19T20:46:49.170Z,97754.16
2023-01-19T20:49:18.060Z,97751.00
2023-01-19T20:51:46.769Z,97765.63
2023-01-19T20:54:30.499Z,97783.09
2023-01-19T20:56:57.560Z,97784.47
2023-01-19T20:59:24.434Z,97762.72
2023-01-19T21:01:51.686Z,97760.50
2023-01-19T21:04:18.590Z,97796.69
2023-01-19T21:06:52.361Z,97771.88
2023-01-19T21:09:21.642Z,97800.31
2023-01-19T21:11:48.183Z,97803.78
2023-01-19T21:14:14.794Z,97780.47
2023-01-19T21:16:42.621Z,97807.09
2023-01-19T21:19:09.313Z,97791.28
2023-01-19T21:21:35.884Z,97782.28
2023-01-19T21:24:03.944Z,97793.91
2023-01-19T21:26:33.311Z,97786.97
2023-01-19T21:29:01.292Z,97787.25
2023-01-19T21:31:28.538Z,97737.47
2023-01-19T21:33:59.201Z,97786.72
2023-01-19T21:36:26.179Z,97802.78
2023-01-19T21:38:55.327Z,97809.19
2023-01-19T21:41:22.056Z,97802.53
2023-01-19T21:43:48.623Z,97780.31
2023-01-19T21:46:29.079Z,97748.00
2023-01-19T21:49:00.245Z,97803.75
2023-01-19T21:51:33.734Z,97781.56
2023-01-19T21:54:01.859Z,97807.22
2023-01-19T21:56:29.703Z,97806.13
2023-01-19T21:58:57.712Z,97812.91
2023-01-19T22:01:24.552Z,97784.03
2023-01-19T22:03:56.223Z,97810.72
2023-01-19T22:06:23.469Z,97807.34
2023-01-19T22:08:50.116Z,97769.34
2023-01-19T22:11:18.609Z,97796.38
2023-01-19T22:13:46.031Z,97745.16
2023-01-19T22:16:15.270Z,97816.78
2023-01-19T22:18:43.910Z,97805.81
2023-01-19T22:21:16.435Z,97784.84
2023-01-19T22:23:43.825Z,97833.97
2023-01-19T22:26:11.570Z,97826.06
2023-01-19T22:28:38.460Z,97819.00
2023-01-19T22:31:08.232Z,97819.28
2023-01-19T22:33:35.776Z,97828.16
2023-01-19T22:36:13.578Z,97833.56
2023-01-19T22:38:41.070Z,97835.09
2023-01-19T22:41:12.649Z,97812.88
2023-01-19T22:43:39.435Z,97841.47
2023-01-19T22:46:08.566Z,97835.94
2023-01-19T22:48:35.515Z,97806.22
2023-01-19T22:51:02.114Z,97800.00
2023-01-19T22:53:30.906Z,97832.88
2023-01-19T22:55:57.467Z,97829.03
2023-01-19T22:58:24.161Z,97830.25
2023-01-19T23:00:50.799Z,97824.16
2023-01-19T23:03:17.360Z,97828.59
2023-01-19T23:05:43.868Z,97819.56
2023-01-19T23:08:10.524Z,97821.25
2023-01-19T23:10:39.858Z,97821.38
2023-01-19T23:13:06.501Z,97744.66
2023-01-19T23:15:34.044Z,97824.44
2023-01-19T23:18:00.608Z,97829.03
2023-01-19T23:20:27.163Z,97818.75
2023-01-19T23:22:53.696Z,97795.16
2023-01-19T23:25:20.246Z,97809.75
2023-01-19T23:27:46.875Z,97826.78
2023-01-19T23:30:13.840Z,97835.94
2023-01-19T23:32:40.494Z,97806.09
2023-01-19T23:35:09.267Z,97791.81
2023-01-19T23:37:35.882Z,97822.78
2023-01-19T23:40:02.466Z,97824.44
2023-01-19T23:42:28.939Z,97826.50
2023-01-19T23:44:55.490Z,97830.22
2023-01-19T23:47:22.097Z,97809.13
2023-01-19T23:49:48.885Z,97825.09
2023-01-19T23:52:15.500Z,97819.41
2023-01-19T23:54:42.019Z,97823.41
2023-01-19T23:57:08.568Z,97827.84
2023-01-19T23:59:35.093Z,97821.31
